createdAt,value
2023-02-17T00:02:17.546Z,9.10
2023-02-17T00:04:44.130Z,9.10
2023-02-17T00:07:10.774Z,9.10
2023-02-17T00:09:37.492Z,9.10
2023-02-17T00:12:04.244Z,9.00
2023-02-17T00:14:30.896Z,9.00
2023-02-17T00:16:57.585Z,9.00
2023-02-17T00:19:25.308Z,9.00
2023-02-17T00:21:53.657Z,9.00
2023-02-17T00:24:20.388Z,9.00
2023-02-17T00:26:46.964Z,9.00
2023-02-17T00:29:13.926Z,9.00
2023-02-17T00:31:40.578Z,9.00
2023-02-17T00:34:07.373Z,9.00
2023-02-17T00:36:34.190Z,9.10
2023-02-17T00:39:00.855Z,9.00
2023-02-17T00:41:28.253Z,9.00
2023-02-17T00:43:55.196Z,9.00
2023-02-17T00:46:22.015Z,9.00
2023-02-17T00:48:48.940Z,9.00
2023-02-17T00:51:16.409Z,9.00
2023-02-17T00:53:43.092Z,9.00
2023-02-17T00:56:09.957Z,9.00
2023-02-17T00:58:36.594Z,9.00
2023-02-17T01:01:03.511Z,9.00
2023-02-17T01:03:30.328Z,9.00
2023-02-17T01:05:57.134Z,9.00
2023-02-17T01:08:24.030Z,8.90
2023-02-17T01:10:50.970Z,9.00
2023-02-17T01:13:18.557Z,8.90
2023-02-17T01:15:47.148Z,8.90
2023-02-17T01:18:13.912Z,8.80
2023-02-17T01:20:40.868Z,8.80
2023-02-17T01:23:08.113Z,8.70
2023-02-17T01:25:38.311Z,8.70
2023-02-17T01:28:05.631Z,8.60
2023-02-17T01:30:32.375Z,8.60
2023-02-17T01:32:59.009Z,8.50
2023-02-17T01:35:25.650Z,8.40
2023-02-17T01:37:52.271Z,8.40
2023-02-17T01:40:19.190Z,8.30
2023-02-17T01:42:45.797Z,8.30
2023-02-17T01:45:18.594Z,8.20
2023-02-17T01:47:45.172Z,8.20
2023-02-17T01:50:11.925Z,8.10
2023-02-17T01:52:39.661Z,8.10
2023-02-17T01:55:08.943Z,8.10
2023-02-17T01:57:36.837Z,8.10
2023-02-17T02:00:04.765Z,8.20
2023-02-17T02:02:32.074Z,8.20
2023-02-17T02:04:58.945Z,8.20
2023-02-17T02:07:30.447Z,8.30
2023-02-17T02:09:58.040Z,8.30
2023-02-17T02:12:29.849Z,8.30
2023-02-17T02:15:07.987Z,8.30
2023-02-17T02:17:49.843Z,8.40
2023-02-17T02:20:19.511Z,8.40
2023-02-17T02:22:46.083Z,8.40
2023-02-17T02:25:12.654Z,8.50
2023-02-17T02:27:52.280Z,8.50
2023-02-17T02:30:37.801Z,8.60
2023-02-17T02:33:24.691Z,8.60
2023-02-17T02:35:56.457Z,8.60
2023-02-17T02:38:32.726Z,8.70
2023-02-17T02:41:11.241Z,8.70
2023-02-17T02:43:38.098Z,8.80
2023-02-17T02:46:05.306Z,8.80
2023-02-17T02:48:32.227Z,8.90
2023-02-17T02:51:06.438Z,8.90
2023-02-17T02:53:45.859Z,8.90
2023-02-17T02:56:26.278Z,8.90
2023-02-17T02:59:16.038Z,9.00
2023-02-17T03:02:01.115Z,9.00
2023-02-17T03:04:36.360Z,9.00
2023-02-17T03:07:24.220Z,9.10
2023-02-17T03:09:51.811Z,9.10
2023-02-17T03:12:19.212Z,9.10
2023-02-17T03:14:47.806Z,9.10
2023-02-17T03:17:14.417Z,9.10
2023-02-17T03:19:41.268Z,9.10
2023-02-17T03:22:14.046Z,9.10
2023-02-17T03:24:40.661Z,9.10
2023-02-17T03:27:07.423Z,9.10
2023-02-17T03:29:34.046Z,9.10
2023-02-17T03:32:00.858Z,9.20
2023-02-17T03:34:27.571Z,9.20
2023-02-17T03:36:54.284Z,9.20
2023-02-17T03:39:20.920Z,9.20
2023-02-17T03:41:50.453Z,9.20
2023-02-17T03:44:20.278Z,9.20
2023-02-17T03:46:47.000Z,9.20
2023-02-17T03:49:13.720Z,9.30
2023-02-17T03:51:40.468Z,9.30
2023-02-17T03:54:07.412Z,9.30
2023-02-17T03:56:34.045Z,9.30
2023-02-17T03:59:00.669Z,9.30
2023-02-17T04:01:27.338Z,9.30
2023-02-17T04:03:54.123Z,9.30
2023-02-17T04:06:20.811Z,9.30
2023-02-17T04:08:47.504Z,9.40
2023-02-17T04:11:14.173Z,9.40
2023-02-17T04:13:40.830Z,9.40
2023-02-17T04:16:08.797Z,9.40
2023-02-17T04:18:35.663Z,9.40
2023-02-17T04:21:02.326Z,9.40
2023-02-17T04:23:28.926Z,9.40
2023-02-17T04:25:55.503Z,9.50
2023-02-17T04:28:22.305Z,9.50
2023-02-17T04:30:50.125Z,9.50
2023-02-17T04:33:17.592Z,9.50
2023-02-17T04:35:44.262Z,9.50
2023-02-17T04:38:10.960Z,9.50
2023-02-17T04:40:37.941Z,9.60
2023-02-17T04:43:04.626Z,9.60
2023-02-17T04:45:31.334Z,9.70
2023-02-17T04:47:57.945Z,9.70
2023-02-17T04:50:24.752Z,9.70
2023-02-17T04:52:51.383Z,9.70
2023-02-17T04:55:18.141Z,9.80
2023-02-17T04:57:44.736Z,9.80
2023-02-17T05:00:11.904Z,9.80
2023-02-17T05:02:38.504Z,9.80
2023-02-17T05:05:05.480Z,9.80
2023-02-17T05:07:32.143Z,9.80
2023-02-17T05:09:58.736Z,9.80
2023-02-17T05:12:25.429Z,9.80
2023-02-17T05:14:52.057Z,9.80
2023-02-17T05:17:18.690Z,9.80
2023-02-17T05:19:45.306Z,9.80
2023-02-17T05:22:11.932Z,9.80
2023-02-17T05:24:38.988Z,9.80
2023-02-17T05:27:05.737Z,9.80
2023-02-17T05:29:32.417Z,9.80
2023-02-17T05:31:59.152Z,9.80
2023-02-17T05:34:25.873Z,9.80
2023-02-17T05:36:52.725Z,9.80
2023-02-17T05:39:19.434Z,9.80
2023-02-17T05:41:46.009Z,9.80
2023-02-17T05:44:12.639Z,9.80
2023-02-17T05:46:39.411Z,9.80
2023-02-17T05:49:06.082Z,9.90
2023-02-17T05:51:32.770Z,9.80
2023-02-17T05:53:59.372Z,9.90
2023-02-17T05:56:26.028Z,9.80
2023-02-17T05:58:52.619Z,9.80
2023-02-17T06:01:19.255Z,9.80
2023-02-17T06:03:46.002Z,9.80
2023-02-17T06:06:12.643Z,9.80
2023-02-17T06:08:39.675Z,9.80
2023-02-17T06:11:06.410Z,9.90
2023-02-17T06:13:33.052Z,9.80
2023-02-17T06:15:59.874Z,9.90
2023-02-17T06:18:26.567Z,9.90
2023-02-17T06:20:55.838Z,9.90
2023-02-17T06:23:22.785Z,9.90
2023-02-17T06:25:49.421Z,9.90
2023-02-17T06:28:16.018Z,10.00
2023-02-17T06:30:42.622Z,10.00
2023-02-17T06:33:09.514Z,10.10
2023-02-17T06:35:36.108Z,10.10
2023-02-17T06:38:02.737Z,10.10
2023-02-17T06:40:29.519Z,10.10
2023-02-17T06:42:56.109Z,10.00
2023-02-17T06:45:22.757Z,10.00
2023-02-17T06:47:49.381Z,10.00
2023-02-17T06:50:16.115Z,9.90
2023-02-17T06:52:42.717Z,9.90
2023-02-17T06:55:09.442Z,9.90
2023-02-17T06:57:36.070Z,9.90
2023-02-17T07:00:03.008Z,9.90
2023-02-17T07:02:29.725Z,9.90
2023-02-17T07:04:56.418Z,10.00
2023-02-17T07:07:23.012Z,10.10
2023-02-17T07:09:49.684Z,10.10
2023-02-17T07:12:16.352Z,10.20
2023-02-17T07:14:43.010Z,10.30
2023-02-17T07:17:09.671Z,10.30
2023-02-17T07:19:36.394Z,10.40
2023-02-17T07:22:03.025Z,10.50
2023-02-17T07:24:29.673Z,10.70
2023-02-17T07:26:56.333Z,10.80
2023-02-17T07:29:23.055Z,11.00
2023-02-17T07:31:49.793Z,11.20
2023-02-17T07:34:16.430Z,11.30
2023-02-17T07:36:43.069Z,11.40
2023-02-17T07:39:09.732Z,11.50
2023-02-17T07:41:36.357Z,11.60
2023-02-17T07:44:02.977Z,11.70
2023-02-17T07:46:29.608Z,11.90
2023-02-17T07:48:56.979Z,12.10
2023-02-17T07:51:23.993Z,12.30
2023-02-17T07:53:51.181Z,12.30
2023-02-17T07:56:19.194Z,12.30
2023-02-17T07:58:45.851Z,12.30
2023-02-17T08:01:16.825Z,12.30
2023-02-17T08:03:43.982Z,12.20
2023-02-17T08:06:14.831Z,12.20
2023-02-17T08:09:00.097Z,12.20
2023-02-17T08:11:46.488Z,12.10
2023-02-17T08:14:14.510Z,12.10
2023-02-17T08:16:41.147Z,12.10
2023-02-17T08:19:07.942Z,12.10
2023-02-17T08:21:34.780Z,12.10
2023-02-17T08:24:01.438Z,12.10
2023-02-17T08:26:28.277Z,12.10
2023-02-17T08:28:55.417Z,12.10
2023-02-17T08:31:23.898Z,12.10
2023-02-17T08:33:50.785Z,12.10
2023-02-17T08:36:17.753Z,12.10
2023-02-17T08:38:50.142Z,12.20
2023-02-17T08:41:16.747Z,12.30
2023-02-17T08:43:43.905Z,12.40
2023-02-17T08:46:11.655Z,12.50
2023-02-17T08:48:38.428Z,12.60
2023-02-17T08:51:05.312Z,12.80
2023-02-17T08:53:32.064Z,12.90
2023-02-17T08:55:58.957Z,12.80
2023-02-17T08:58:25.941Z,12.80
2023-02-17T09:00:52.597Z,12.80
2023-02-17T09:03:19.241Z,12.80
2023-02-17T09:05:45.860Z,12.80
2023-02-17T09:08:12.461Z,12.80
2023-02-17T09:10:39.107Z,12.80
2023-02-17T09:13:05.825Z,12.80
2023-02-17T09:15:32.526Z,12.80
2023-02-17T09:17:59.161Z,12.80
2023-02-17T09:20:25.774Z,12.70
2023-02-17T09:22:52.647Z,12.70
2023-02-17T09:25:19.409Z,12.60
2023-02-17T09:27:46.067Z,12.50
2023-02-17T09:30:13.106Z,12.50
2023-02-17T09:32:43.144Z,12.40
2023-02-17T09:35:13.931Z,12.40
2023-02-17T09:37:40.624Z,12.50
2023-02-17T09:40:08.648Z,12.60
2023-02-17T09:42:38.930Z,12.70
2023-02-17T09:45:08.468Z,12.70
2023-02-17T09:47:38.383Z,12.80
2023-02-17T09:50:15.967Z,12.80
2023-02-17T09:52:42.555Z,12.90
2023-02-17T09:55:13.537Z,12.90
2023-02-17T09:57:42.657Z,12.90
2023-02-17T10:00:12.395Z,13.00
2023-02-17T10:02:41.826Z,13.10
2023-02-17T10:05:11.391Z,13.30
2023-02-17T10:07:47.118Z,13.60
2023-02-17T10:10:16.287Z,13.80
2023-02-17T10:12:51.871Z,13.90
2023-02-17T10:15:20.992Z,13.90
2023-02-17T10:18:08.470Z,14.00
2023-02-17T10:20:39.679Z,14.10
2023-02-17T10:23:18.369Z,14.30
2023-02-17T10:26:05.360Z,14.40
2023-02-17T10:28:52.349Z,14.40
2023-02-17T10:31:19.045Z,14.50
2023-02-17T10:34:07.006Z,14.50
2023-02-17T10:36:52.025Z,14.40
2023-02-17T10:39:24.921Z,14.30
2023-02-17T10:41:51.885Z,14.40
2023-02-17T10:44:21.294Z,14.50
2023-02-17T10:46:48.585Z,14.60
2023-02-17T10:49:26.941Z,14.70
2023-02-17T10:51:53.553Z,14.70
2023-02-17T10:54:32.681Z,14.70
2023-02-17T10:57:01.234Z,14.70
2023-02-17T10:59:30.065Z,14.80
2023-02-17T11:01:59.904Z,14.80
2023-02-17T11:04:26.539Z,15.00
2023-02-17T11:06:55.217Z,15.30
2023-02-17T11:09:21.900Z,15.50
2023-02-17T11:11:59.434Z,15.80
2023-02-17T11:14:27.500Z,15.90
2023-02-17T11:17:23.647Z,16.00
2023-02-17T11:19:55.062Z,16.00
2023-02-17T11:22:51.068Z,16.10
2023-02-17T11:25:25.260Z,16.20
2023-02-17T11:27:52.644Z,16.00
2023-02-17T11:30:19.840Z,15.90
2023-02-17T11:32:47.032Z,15.90
2023-02-17T11:35:41.597Z,15.90
2023-02-17T11:38:16.090Z,15.90
2023-02-17T11:40:53.836Z,15.80
2023-02-17T11:43:20.812Z,15.70
2023-02-17T11:45:47.403Z,15.70
2023-02-17T11:48:26.077Z,15.60
2023-02-17T11:51:15.751Z,15.70
2023-02-17T11:54:01.321Z,15.70
2023-02-17T11:56:34.286Z,15.80
2023-02-17T11:59:15.738Z,15.80
2023-02-17T12:01:49.052Z,15.70
2023-02-17T12:04:18.684Z,15.70
2023-02-17T12:07:04.055Z,15.60
2023-02-17T12:09:42.885Z,15.50
2023-02-17T12:12:28.405Z,15.50
2023-02-17T12:15:24.404Z,15.40
2023-02-17T12:17:50.996Z,15.50
2023-02-17T12:20:36.058Z,15.50
2023-02-17T12:23:08.677Z,15.40
2023-02-17T12:25:58.582Z,15.50
2023-02-17T12:28:34.383Z,15.60
2023-02-17T12:31:03.403Z,15.90
2023-02-17T12:33:36.339Z,16.00
2023-02-17T12:36:05.438Z,15.90
2023-02-17T12:38:34.449Z,15.90
2023-02-17T12:41:20.117Z,15.70
2023-02-17T12:43:58.165Z,15.60
2023-02-17T12:46:27.553Z,15.40
2023-02-17T12:48:57.662Z,15.30
2023-02-17T12:51:24.299Z,15.30
2023-02-17T12:53:54.441Z,15.20
2023-02-17T12:56:31.238Z,15.10
2023-02-17T12:59:13.251Z,15.00
2023-02-17T13:01:43.729Z,15.00
2023-02-17T13:04:15.119Z,15.00
2023-02-17T13:06:45.250Z,15.00
2023-02-17T13:09:27.362Z,15.00
2023-02-17T13:11:54.018Z,15.00
2023-02-17T13:14:26.662Z,14.90
2023-02-17T13:16:53.327Z,14.80
2023-02-17T13:19:33.982Z,14.70
2023-02-17T13:22:02.357Z,14.70
2023-02-17T13:24:36.749Z,14.60
2023-02-17T13:27:11.032Z,14.50
2023-02-17T13:29:37.957Z,14.50
2023-02-17T13:32:06.604Z,14.40
2023-02-17T13:34:36.317Z,14.40
2023-02-17T13:37:18.358Z,14.30
2023-02-17T13:39:45.164Z,14.30
2023-02-17T13:42:44.383Z,14.30
2023-02-17T13:45:29.185Z,14.20
2023-02-17T13:47:57.513Z,14.20
2023-02-17T13:50:28.234Z,14.30
2023-02-17T13:52:55.413Z,14.30
2023-02-17T13:55:23.842Z,14.30
2023-02-17T13:57:54.225Z,14.30
2023-02-17T14:00:25.481Z,14.30
2023-02-17T14:02:56.742Z,14.30
2023-02-17T14:05:27.233Z,14.50
2023-02-17T14:07:57.545Z,14.80
2023-02-17T14:10:25.801Z,15.10
2023-02-17T14:12:52.912Z,15.40
2023-02-17T14:15:21.343Z,15.50
2023-02-17T14:17:48.024Z,15.60
2023-02-17T14:20:24.716Z,15.70
2023-02-17T14:23:04.034Z,15.40
2023-02-17T14:25:32.516Z,15.10
2023-02-17T14:27:59.150Z,14.90
2023-02-17T14:30:30.897Z,14.70
2023-02-17T14:33:07.695Z,14.50
2023-02-17T14:35:35.445Z,14.40
2023-02-17T14:38:10.224Z,14.20
2023-02-17T14:40:39.691Z,14.40
2023-02-17T14:43:06.663Z,14.60
2023-02-17T14:45:33.319Z,14.80
2023-02-17T14:47:59.986Z,14.70
2023-02-17T14:50:26.709Z,14.60
2023-02-17T14:52:53.563Z,14.50
2023-02-17T14:55:20.173Z,14.40
2023-02-17T14:57:46.802Z,14.30
2023-02-17T15:00:14.243Z,14.20
2023-02-17T15:02:41.052Z,14.20
2023-02-17T15:05:07.940Z,14.20
2023-02-17T15:07:35.086Z,14.10
2023-02-17T15:10:01.817Z,14.00
2023-02-17T15:12:28.512Z,14.00
2023-02-17T15:14:55.242Z,13.90
2023-02-17T15:17:21.985Z,13.90
2023-02-17T15:19:49.320Z,13.90
2023-02-17T15:22:15.978Z,13.80
2023-02-17T15:24:42.726Z,13.90
2023-02-17T15:27:13.848Z,13.90
2023-02-17T15:29:40.464Z,13.90
2023-02-17T15:32:12.417Z,13.80
2023-02-17T15:34:39.053Z,13.90
2023-02-17T15:37:05.645Z,13.90
2023-02-17T15:39:32.253Z,13.80
2023-02-17T15:42:00.695Z,13.70
2023-02-17T15:44:30.885Z,13.60
2023-02-17T15:46:57.562Z,13.60
2023-02-17T15:49:24.227Z,13.50
2023-02-17T15:51:50.840Z,13.40
2023-02-17T15:54:19.345Z,13.30
2023-02-17T15:56:50.690Z,13.20
2023-02-17T15:59:25.463Z,13.10
2023-02-17T16:01:52.834Z,13.00
2023-02-17T16:04:19.731Z,13.00
2023-02-17T16:06:46.353Z,13.20
2023-02-17T16:09:12.965Z,13.20
2023-02-17T16:11:53.110Z,13.30
2023-02-17T16:14:39.967Z,13.30
2023-02-17T16:17:12.310Z,13.20
2023-02-17T16:19:38.949Z,13.00
2023-02-17T16:22:05.610Z,13.00
2023-02-17T16:24:32.201Z,13.00
2023-02-17T16:26:59.323Z,12.90
2023-02-17T16:29:25.964Z,12.80
2023-02-17T16:31:52.843Z,12.80
2023-02-17T16:34:22.968Z,12.70
2023-02-17T16:36:50.626Z,12.50
2023-02-17T16:39:18.102Z,12.50
2023-02-17T16:41:44.720Z,12.40
2023-02-17T16:44:15.045Z,12.20
2023-02-17T16:46:46.799Z,12.10
2023-02-17T16:49:18.839Z,12.00
2023-02-17T16:51:45.534Z,11.90
2023-02-17T16:54:12.195Z,11.90
2023-02-17T16:56:43.470Z,11.80
2023-02-17T16:59:18.595Z,11.70
2023-02-17T17:01:45.762Z,11.70
2023-02-17T17:04:12.397Z,11.60
2023-02-17T17:06:42.157Z,11.60
2023-02-17T17:09:08.978Z,11.50
2023-02-17T17:11:35.681Z,11.40
2023-02-17T17:14:02.285Z,11.40
2023-02-17T17:16:31.124Z,11.40
2023-02-17T17:18:58.128Z,11.40
2023-02-17T17:21:24.913Z,11.40
2023-02-17T17:23:51.561Z,11.30
2023-02-17T17:26:18.161Z,11.30
2023-02-17T17:28:44.802Z,11.20
2023-02-17T17:31:11.477Z,11.20
2023-02-17T17:33:38.078Z,11.20
2023-02-17T17:36:11.641Z,11.10
2023-02-17T17:38:38.267Z,11.10
2023-02-17T17:41:04.919Z,11.10
2023-02-17T17:43:31.543Z,11.10
2023-02-17T17:45:58.251Z,11.10
2023-02-17T17:48:24.961Z,11.10
2023-02-17T17:50:51.573Z,11.10
2023-02-17T17:53:18.226Z,11.10
2023-02-17T17:55:46.025Z,11.10
2023-02-17T17:58:12.656Z,11.10
2023-02-17T18:00:39.250Z,11.10
2023-02-17T18:03:06.068Z,11.20
2023-02-17T18:05:32.716Z,11.20
2023-02-17T18:08:00.391Z,11.10
2023-02-17T18:10:26.990Z,11.20
2023-02-17T18:12:53.698Z,11.20
2023-02-17T18:15:20.378Z,11.10
2023-02-17T18:17:47.772Z,11.10
2023-02-17T18:20:14.533Z,11.10
2023-02-17T18:22:41.408Z,11.10
2023-02-17T18:25:08.055Z,11.10
2023-02-17T18:27:41.444Z,11.10
2023-02-17T18:30:09.024Z,11.10
2023-02-17T18:32:35.632Z,11.20
2023-02-17T18:35:02.389Z,11.20
2023-02-17T18:37:28.988Z,11.20
2023-02-17T18:39:55.672Z,11.20
2023-02-17T18:42:22.353Z,11.20
2023-02-17T18:44:49.005Z,11.20
2023-02-17T18:47:15.721Z,11.20
2023-02-17T18:49:42.290Z,11.20
2023-02-17T18:52:08.962Z,11.20
2023-02-17T18:54:40.297Z,11.10
2023-02-17T18:57:06.900Z,11.20
2023-02-17T18:59:33.531Z,11.10
2023-02-17T19:02:00.952Z,11.10
2023-02-17T19:04:27.591Z,11.10
2023-02-17T19:06:54.176Z,11.10
2023-02-17T19:09:20.802Z,11.10
2023-02-17T19:11:47.424Z,11.10
2023-02-17T19:14:14.100Z,11.10
2023-02-17T19:16:40.692Z,11.10
2023-02-17T19:19:07.299Z,11.10
2023-02-17T19:21:36.272Z,11.10
2023-02-17T19:24:03.141Z,11.20
2023-02-17T19:26:29.840Z,11.20
2023-02-17T19:28:56.448Z,11.20
2023-02-17T19:31:23.585Z,11.20
2023-02-17T19:33:50.236Z,11.30
2023-02-17T19:36:18.552Z,11.30
2023-02-17T19:38:45.325Z,11.30
2023-02-17T19:41:12.506Z,11.30
2023-02-17T19:43:39.397Z,11.20
2023-02-17T19:46:06.452Z,11.20
2023-02-17T19:48:34.384Z,11.30
2023-02-17T19:51:04.946Z,11.30
2023-02-17T19:53:31.944Z,11.40
2023-02-17T19:56:15.291Z,11.40
2023-02-17T19:58:42.781Z,11.40
2023-02-17T20:01:10.658Z,11.40
2023-02-17T20:03:37.302Z,11.40
2023-02-17T20:06:11.658Z,11.40
2023-02-17T20:08:38.710Z,11.40
2023-02-17T20:11:07.768Z,11.40
2023-02-17T20:13:45.335Z,11.40
2023-02-17T20:16:13.808Z,11.40
2023-02-17T20:18:41.536Z,11.40
2023-02-17T20:21:09.547Z,11.40
2023-02-17T20:23:36.441Z,11.40
2023-02-17T20:26:07.900Z,11.40
2023-02-17T20:28:35.073Z,11.40
2023-02-17T20:31:01.857Z,11.40
2023-02-17T20:33:28.518Z,11.40
2023-02-17T20:35:55.150Z,11.40
2023-02-17T20:38:21.807Z,11.40
2023-02-17T20:40:48.625Z,11.40
2023-02-17T20:43:15.344Z,11.50
2023-02-17T20:45:42.609Z,11.50
2023-02-17T20:48:09.679Z,11.50
2023-02-17T20:50:36.581Z,11.60
2023-02-17T20:53:03.509Z,11.60
2023-02-17T20:55:30.396Z,11.70
2023-02-17T20:57:57.225Z,11.70
2023-02-17T21:00:24.626Z,11.80
2023-02-17T21:02:52.369Z,11.80
2023-02-17T21:05:19.660Z,11.80
2023-02-17T21:07:46.253Z,11.90
2023-02-17T21:10:16.827Z,11.90
2023-02-17T21:12:43.511Z,11.90
2023-02-17T21:15:10.397Z,11.90
2023-02-17T21:17:37.061Z,11.90
2023-02-17T21:20:04.993Z,11.90
2023-02-17T21:22:31.599Z,11.90
2023-02-17T21:24:58.207Z,11.90
2023-02-17T21:27:24.824Z,11.90
2023-02-17T21:29:51.490Z,11.90
2023-02-17T21:32:18.260Z,11.90
2023-02-17T21:34:44.941Z,11.90
2023-02-17T21:37:11.763Z,11.90
2023-02-17T21:39:38.364Z,11.90
2023-02-17T21:42:05.021Z,11.90
2023-02-17T21:44:50.184Z,12.00
2023-02-17T21:47:16.868Z,11.90
2023-02-17T21:49:44.131Z,11.90
2023-02-17T21:52:10.830Z,12.00
2023-02-17T21:54:37.474Z,12.00
2023-02-17T21:57:04.581Z,12.00
2023-02-17T21:59:31.333Z,12.00
2023-02-17T22:01:58.098Z,12.00
2023-02-17T22:04:26.444Z,12.00
2023-02-17T22:06:53.090Z,12.10
2023-02-17T22:09:19.829Z,12.10
2023-02-17T22:11:46.975Z,12.20
2023-02-17T22:14:14.942Z,12.20
2023-02-17T22:16:41.781Z,12.20
2023-02-17T22:19:09.115Z,12.20
2023-02-17T22:21:35.731Z,12.20
2023-02-17T22:24:02.698Z,12.20
2023-02-17T22:26:29.639Z,12.20
2023-02-17T22:28:56.718Z,12.20
2023-02-17T22:31:24.913Z,12.20
2023-02-17T22:33:51.580Z,12.20
2023-02-17T22:36:19.658Z,12.20
2023-02-17T22:38:46.343Z,12.20
2023-02-17T22:41:15.161Z,12.20
2023-02-17T22:43:42.347Z,12.20
2023-02-17T22:46:10.283Z,12.20
2023-02-17T22:48:37.855Z,12.20
2023-02-17T22:51:08.382Z,12.20
2023-02-17T22:53:35.374Z,12.10
2023-02-17T22:56:02.025Z,12.10
2023-02-17T22:58:28.859Z,12.00
2023-02-17T23:01:06.274Z,12.00
2023-02-17T23:03:33.409Z,12.00
2023-02-17T23:06:04.384Z,12.00
2023-02-17T23:08:31.380Z,12.00
2023-02-17T23:10:58.089Z,12.00
2023-02-17T23:13:25.197Z,11.90
2023-02-17T23:15:51.926Z,12.00
2023-02-17T23:18:19.528Z,11.90
2023-02-17T23:20:47.379Z,12.00
2023-02-17T23:23:14.690Z,11.90
2023-02-17T23:25:42.771Z,11.90
2023-02-17T23:28:10.861Z,11.90
2023-02-17T23:30:37.607Z,11.90
2023-02-17T23:33:04.265Z,11.90
2023-02-17T23:35:30.903Z,11.80
2023-02-17T23:37:57.620Z,11.80
2023-02-17T23:40:24.271Z,11.70
2023-02-17T23:42:50.874Z,11.70
2023-02-17T23:45:17.526Z,11.60
2023-02-17T23:47:44.134Z,11.60
2023-02-17T23:50:10.999Z,11.50
2023-02-17T23:52:37.626Z,11.40
2023-02-17T23:55:06.032Z,11.30
2023-02-17T23:57:39.116Z,11.20
